createdAt,value
2022-10-31T00:01:44.052Z,99.90
2022-10-31T00:04:11.392Z,99.90
2022-10-31T00:06:38.694Z,99.90
2022-10-31T00:09:06.114Z,99.90
2022-10-31T00:11:33.455Z,99.90
2022-10-31T00:14:00.806Z,99.90
2022-10-31T00:16:28.679Z,99.90
2022-10-31T00:18:58.051Z,99.90
2022-10-31T00:21:25.584Z,99.90
2022-10-31T00:23:52.948Z,99.90
2022-10-31T00:26:20.607Z,99.90
2022-10-31T00:28:48.297Z,99.90
2022-10-31T00:31:15.743Z,99.90
2022-10-31T00:33:43.110Z,99.90
2022-10-31T00:36:16.187Z,99.90
2022-10-31T00:38:44.265Z,99.90
2022-10-31T00:41:12.175Z,99.90
2022-10-31T00:43:42.676Z,99.90
2022-10-31T00:46:10.891Z,99.90
2022-10-31T00:48:38.301Z,99.90
2022-10-31T00:51:05.707Z,99.90
2022-10-31T00:53:33.519Z,99.90
2022-10-31T00:56:01.284Z,99.90
2022-10-31T00:58:28.640Z,99.90
2022-10-31T01:00:56.652Z,99.90
2022-10-31T01:03:30.110Z,99.90
2022-10-31T01:06:01.148Z,99.90
2022-10-31T01:08:28.800Z,99.90
2022-10-31T01:11:13.114Z,99.90
2022-10-31T01:13:41.580Z,99.90
2022-10-31T01:16:11.407Z,99.90
2022-10-31T01:18:38.769Z,99.90
2022-10-31T01:21:08.379Z,99.90
2022-10-31T01:23:36.105Z,99.90
2022-10-31T01:26:08.295Z,99.90
2022-10-31T01:28:37.141Z,99.90
2022-10-31T01:31:06.254Z,99.90
2022-10-31T01:33:35.487Z,99.90
2022-10-31T01:36:11.922Z,99.90
2022-10-31T01:38:39.275Z,99.90
2022-10-31T01:41:06.701Z,99.90
2022-10-31T01:43:48.415Z,99.90
2022-10-31T01:46:16.964Z,99.90
2022-10-31T01:48:44.362Z,99.90
2022-10-31T01:51:12.174Z,99.90
2022-10-31T01:53:39.474Z,99.90
2022-10-31T01:56:07.144Z,99.90
2022-10-31T01:58:34.473Z,99.90
2022-10-31T02:01:04.950Z,99.90
2022-10-31T02:03:35.141Z,99.90
2022-10-31T02:06:02.458Z,99.90
2022-10-31T02:08:31.141Z,99.90
2022-10-31T02:10:58.888Z,99.90
2022-10-31T02:15:59.372Z,99.90
2022-10-31T02:18:29.480Z,99.90
2022-10-31T02:21:21.853Z,99.90
2022-10-31T02:24:07.755Z,99.90
2022-10-31T02:26:53.855Z,99.90
2022-10-31T02:29:32.685Z,99.90
2022-10-31T02:31:59.959Z,99.90
2022-10-31T02:34:43.858Z,99.90
2022-10-31T02:37:15.413Z,99.90
2022-10-31T02:39:48.199Z,99.90
2022-10-31T02:42:35.024Z,99.90
2022-10-31T02:45:10.359Z,99.90
2022-10-31T02:47:38.483Z,99.90
2022-10-31T02:50:15.618Z,99.90
2022-10-31T02:52:42.979Z,99.90
2022-10-31T02:55:33.965Z,99.90
2022-10-31T02:58:16.032Z,99.90
2022-10-31T03:01:05.168Z,99.90
2022-10-31T03:03:58.302Z,99.90
2022-10-31T03:06:32.001Z,99.90
2022-10-31T03:09:10.895Z,99.90
2022-10-31T03:11:50.922Z,99.90
2022-10-31T03:14:23.639Z,99.90
2022-10-31T03:16:55.897Z,99.90
2022-10-31T03:19:31.518Z,99.90
2022-10-31T03:22:04.883Z,99.90
2022-10-31T03:24:35.298Z,99.90
2022-10-31T03:27:02.740Z,99.90
2022-10-31T03:29:33.706Z,99.90
2022-10-31T03:32:09.362Z,99.90
2022-10-31T03:34:37.468Z,99.90
2022-10-31T03:37:07.415Z,99.90
2022-10-31T03:39:34.864Z,99.90
2022-10-31T03:42:17.646Z,99.90
2022-10-31T03:44:51.441Z,99.90
2022-10-31T03:47:18.966Z,99.90
2022-10-31T03:49:49.576Z,99.90
2022-10-31T03:52:35.417Z,99.90
2022-10-31T03:55:48.135Z,99.90
2022-10-31T03:58:35.182Z,99.90
2022-10-31T04:01:02.920Z,99.90
2022-10-31T04:03:32.117Z,99.90
2022-10-31T04:06:03.619Z,99.90
2022-10-31T04:08:32.059Z,99.90
2022-10-31T04:10:59.988Z,99.90
2022-10-31T04:13:29.079Z,99.90
2022-10-31T04:16:14.215Z,99.90
2022-10-31T04:18:45.334Z,99.90
2022-10-31T04:21:12.678Z,99.90
2022-10-31T04:23:40.024Z,99.90
2022-10-31T04:26:21.994Z,99.90
2022-10-31T04:28:49.331Z,99.90
2022-10-31T04:31:16.729Z,99.90
2022-10-31T04:33:46.187Z,99.90
2022-10-31T04:36:13.539Z,99.90
2022-10-31T04:38:40.863Z,99.90
2022-10-31T04:41:17.560Z,99.90
2022-10-31T04:43:58.657Z,99.90
2022-10-31T04:46:28.016Z,99.90
2022-10-31T04:48:57.412Z,99.90
2022-10-31T04:51:25.091Z,99.90
2022-10-31T04:53:53.174Z,99.90
2022-10-31T04:56:43.676Z,99.90
2022-10-31T04:59:16.285Z,99.90
2022-10-31T05:01:51.213Z,99.90
2022-10-31T05:04:23.756Z,99.90
2022-10-31T05:06:51.128Z,99.90
2022-10-31T05:09:18.516Z,99.90
2022-10-31T05:11:45.871Z,99.90
2022-10-31T05:14:33.046Z,99.90
2022-10-31T05:17:20.268Z,99.90
2022-10-31T05:20:07.800Z,99.90
2022-10-31T05:22:58.485Z,99.90
2022-10-31T05:25:27.292Z,99.90
2022-10-31T05:27:55.057Z,99.90
2022-10-31T05:30:24.247Z,99.90
2022-10-31T05:32:52.011Z,99.90
2022-10-31T05:35:37.841Z,99.90
2022-10-31T05:38:28.267Z,99.90
2022-10-31T05:41:01.001Z,99.90
2022-10-31T05:43:29.799Z,99.90
2022-10-31T05:45:57.365Z,99.90
2022-10-31T05:48:47.501Z,99.90
2022-10-31T05:51:40.816Z,99.90
2022-10-31T05:54:13.292Z,99.90
2022-10-31T05:56:44.824Z,99.90
2022-10-31T05:59:12.142Z,99.90
2022-10-31T06:01:40.795Z,99.90
2022-10-31T06:04:19.544Z,99.90
2022-10-31T06:06:46.899Z,99.90
2022-10-31T06:09:14.268Z,99.90
2022-10-31T06:11:44.615Z,99.90
2022-10-31T06:14:31.862Z,99.90
2022-10-31T06:16:59.198Z,99.90
2022-10-31T06:19:44.973Z,99.90
2022-10-31T06:22:16.497Z,99.90
2022-10-31T06:24:44.730Z,99.90
2022-10-31T06:27:29.284Z,99.90
2022-10-31T06:29:58.075Z,99.90
2022-10-31T06:32:36.693Z,99.90
2022-10-31T06:35:04.409Z,99.90
2022-10-31T06:37:34.002Z,99.90
2022-10-31T06:40:09.140Z,99.90
2022-10-31T06:43:02.043Z,99.90
2022-10-31T06:45:31.250Z,99.90
2022-10-31T06:48:18.179Z,99.90
2022-10-31T06:51:09.056Z,99.90
2022-10-31T06:53:36.504Z,99.90
2022-10-31T06:56:05.426Z,99.90
2022-10-31T06:58:37.965Z,99.90
2022-10-31T07:01:07.753Z,99.90
2022-10-31T07:03:35.490Z,99.90
2022-10-31T07:06:03.172Z,99.90
2022-10-31T07:08:30.568Z,99.90
2022-10-31T07:10:59.086Z,99.90
2022-10-31T07:13:28.539Z,99.90
2022-10-31T07:16:05.388Z,99.90
2022-10-31T07:18:35.156Z,99.90
2022-10-31T07:21:03.281Z,99.90
2022-10-31T07:23:30.595Z,99.90
2022-10-31T07:26:23.706Z,99.90
2022-10-31T07:28:51.110Z,99.90
2022-10-31T07:31:22.930Z,99.90
2022-10-31T07:33:51.886Z,99.90
2022-10-31T07:36:42.275Z,99.90
2022-10-31T07:39:09.741Z,99.90
2022-10-31T07:41:37.369Z,99.90
2022-10-31T07:44:04.927Z,99.90
2022-10-31T07:46:50.615Z,99.90
2022-10-31T07:49:40.584Z,99.90
2022-10-31T07:52:30.514Z,99.90
2022-10-31T07:55:36.273Z,99.90
2022-10-31T07:58:05.620Z,99.90
2022-10-31T08:00:33.947Z,99.90
2022-10-31T08:03:02.913Z,99.90
2022-10-31T08:05:48.884Z,99.90
2022-10-31T08:08:48.066Z,99.90
2022-10-31T08:11:15.436Z,99.90
2022-10-31T08:13:44.005Z,99.90
2022-10-31T08:16:14.180Z,99.90
2022-10-31T08:18:51.653Z,99.90
2022-10-31T08:21:19.534Z,99.90
2022-10-31T08:23:47.129Z,99.90
2022-10-31T08:26:15.410Z,99.90
2022-10-31T08:28:44.358Z,99.90
2022-10-31T08:31:11.967Z,99.90
2022-10-31T08:33:41.861Z,99.90
2022-10-31T08:36:28.086Z,99.90
2022-10-31T08:39:24.384Z,99.90
2022-10-31T08:41:51.823Z,99.90
2022-10-31T08:44:19.231Z,99.90
2022-10-31T08:46:46.802Z,99.90
2022-10-31T08:49:15.280Z,99.90
2022-10-31T08:51:44.144Z,99.90
2022-10-31T08:54:11.570Z,99.90
2022-10-31T08:56:57.141Z,99.90
2022-10-31T08:59:34.795Z,99.90
2022-10-31T09:02:22.402Z,99.90
2022-10-31T09:04:52.183Z,99.90
2022-10-31T09:07:21.002Z,99.90
2022-10-31T09:09:49.112Z,99.90
2022-10-31T09:12:18.050Z,99.90
2022-10-31T09:15:09.358Z,99.90
2022-10-31T09:17:57.725Z,99.90
2022-10-31T09:20:25.186Z,99.90
2022-10-31T09:23:04.184Z,99.90
2022-10-31T09:25:33.134Z,99.90
2022-10-31T09:28:20.646Z,99.90
2022-10-31T09:30:49.546Z,99.90
2022-10-31T09:33:23.650Z,99.90
2022-10-31T09:36:06.884Z,99.90
2022-10-31T09:38:36.627Z,99.90
2022-10-31T09:41:22.201Z,99.90
2022-10-31T09:44:09.740Z,99.90
2022-10-31T09:47:00.924Z,99.90
2022-10-31T09:49:35.314Z,99.90
2022-10-31T09:52:29.211Z,99.90
2022-10-31T09:55:06.993Z,99.90
2022-10-31T09:57:36.617Z,99.90
2022-10-31T10:00:07.836Z,99.90
2022-10-31T10:02:55.975Z,99.90
2022-10-31T10:05:31.774Z,99.90
2022-10-31T10:08:17.255Z,99.90
2022-10-31T10:11:05.937Z,99.90
2022-10-31T10:14:09.046Z,99.90
2022-10-31T10:16:58.890Z,99.90
2022-10-31T10:19:29.249Z,99.90
2022-10-31T10:21:59.543Z,99.90
2022-10-31T10:24:26.819Z,99.90
2022-10-31T10:27:12.398Z,99.70
2022-10-31T10:29:44.291Z,99.70
2022-10-31T10:32:20.005Z,99.00
2022-10-31T10:34:51.461Z,98.50
2022-10-31T10:37:26.717Z,98.30
2022-10-31T10:39:57.428Z,98.20
2022-10-31T10:42:44.620Z,97.90
2022-10-31T10:45:38.293Z,97.30
2022-10-31T10:48:24.030Z,96.70
2022-10-31T10:50:52.442Z,96.10
2022-10-31T10:53:32.486Z,96.20
2022-10-31T10:56:20.571Z,96.50
2022-10-31T10:58:48.218Z,96.50
2022-10-31T11:03:48.260Z,95.70
2022-10-31T11:06:26.732Z,95.10
2022-10-31T11:08:54.348Z,94.60
2022-10-31T11:11:31.455Z,93.80
2022-10-31T11:14:04.510Z,93.50
2022-10-31T11:16:40.469Z,93.60
2022-10-31T11:19:20.264Z,93.30
2022-10-31T11:21:52.816Z,93.30
2022-10-31T11:24:23.650Z,93.40
2022-10-31T11:26:51.564Z,93.50
2022-10-31T11:29:25.720Z,93.50
2022-10-31T11:31:54.235Z,93.00
2022-10-31T11:34:29.009Z,93.00
2022-10-31T11:36:56.472Z,93.20
2022-10-31T11:39:25.030Z,92.70
2022-10-31T11:41:53.299Z,91.90
2022-10-31T11:44:27.954Z,91.50
2022-10-31T11:47:03.185Z,91.20
2022-10-31T11:49:38.761Z,91.00
2022-10-31T11:52:17.757Z,90.70
2022-10-31T11:54:56.324Z,89.90
2022-10-31T11:57:34.455Z,90.00
2022-10-31T12:00:04.303Z,90.00
2022-10-31T12:02:39.438Z,89.00
2022-10-31T12:05:22.689Z,88.60
2022-10-31T12:07:50.143Z,88.40
2022-10-31T12:10:17.619Z,88.10
2022-10-31T12:12:48.061Z,87.70
2022-10-31T12:15:36.428Z,88.00
2022-10-31T12:18:15.945Z,88.60
2022-10-31T12:21:06.586Z,89.00
2022-10-31T12:23:39.769Z,89.50
2022-10-31T12:26:16.181Z,90.00
2022-10-31T12:28:46.396Z,90.20
2022-10-31T12:31:37.523Z,90.70
2022-10-31T12:34:38.685Z,90.70
2022-10-31T12:37:11.897Z,90.90
2022-10-31T12:39:51.203Z,91.00
2022-10-31T12:42:21.517Z,91.00
2022-10-31T12:45:00.394Z,91.20
2022-10-31T12:47:54.294Z,91.30
2022-10-31T12:50:39.700Z,91.40
2022-10-31T12:54:04.140Z,91.40
2022-10-31T12:56:55.282Z,91.20
2022-10-31T12:59:25.629Z,91.30
2022-10-31T13:02:15.810Z,91.60
2022-10-31T13:04:59.342Z,91.30
2022-10-31T13:07:39.437Z,91.10
2022-10-31T13:10:20.873Z,90.90
2022-10-31T13:12:49.773Z,91.00
2022-10-31T13:15:22.919Z,91.10
2022-10-31T13:17:57.615Z,91.30
2022-10-31T13:20:29.028Z,91.40
2022-10-31T13:23:51.898Z,91.50
2022-10-31T13:26:50.348Z,91.80
2022-10-31T13:29:33.192Z,91.90
2022-10-31T13:32:07.251Z,92.10
2022-10-31T13:34:39.451Z,92.50
2022-10-31T13:37:32.235Z,92.40
2022-10-31T13:40:19.006Z,92.60
2022-10-31T13:43:00.175Z,92.80
2022-10-31T13:45:27.790Z,93.00
2022-10-31T13:48:02.315Z,93.30
2022-10-31T13:50:31.541Z,93.60
2022-10-31T13:53:17.711Z,93.50
2022-10-31T13:55:47.246Z,93.70
2022-10-31T13:58:28.584Z,93.90
2022-10-31T14:01:10.838Z,94.10
2022-10-31T14:04:03.595Z,94.50
2022-10-31T14:07:00.377Z,94.40
2022-10-31T14:09:33.049Z,94.50
2022-10-31T14:12:03.073Z,94.60
2022-10-31T14:14:43.679Z,94.30
2022-10-31T14:17:19.432Z,94.40
2022-10-31T14:19:59.898Z,94.80
2022-10-31T14:22:31.956Z,95.60
2022-10-31T14:24:59.506Z,96.10
2022-10-31T14:27:29.795Z,96.70
2022-10-31T14:29:57.101Z,97.10
2022-10-31T14:32:25.299Z,97.60
2022-10-31T14:34:58.585Z,98.00
2022-10-31T14:38:02.222Z,98.30
2022-10-31T14:40:54.410Z,98.90
2022-10-31T14:43:40.464Z,99.70
2022-10-31T14:46:14.733Z,99.90
2022-10-31T14:49:06.535Z,99.90
2022-10-31T14:51:40.034Z,99.90
2022-10-31T14:54:08.927Z,99.90
2022-10-31T14:56:38.546Z,99.90
2022-10-31T14:59:13.206Z,99.90
2022-10-31T15:01:40.919Z,99.90
2022-10-31T15:04:24.196Z,99.90
2022-10-31T15:07:05.501Z,99.90
2022-10-31T15:09:34.584Z,99.90
2022-10-31T15:12:02.674Z,99.90
2022-10-31T15:14:33.083Z,99.90
2022-10-31T15:17:02.368Z,99.90
2022-10-31T15:19:31.064Z,99.90
2022-10-31T15:21:58.481Z,99.90
2022-10-31T15:24:35.615Z,99.90
2022-10-31T15:27:05.076Z,99.90
2022-10-31T15:29:32.762Z,99.90
2022-10-31T15:32:02.065Z,99.90
2022-10-31T15:34:40.145Z,99.90
2022-10-31T15:37:26.879Z,99.90
2022-10-31T15:39:54.163Z,99.90
2022-10-31T15:42:28.778Z,99.90
2022-10-31T15:45:20.504Z,99.90
2022-10-31T15:48:05.598Z,99.90
2022-10-31T15:50:38.671Z,99.90
2022-10-31T15:53:07.173Z,99.90
2022-10-31T15:55:37.813Z,99.90
2022-10-31T15:58:14.761Z,99.90
2022-10-31T16:00:42.091Z,99.90
2022-10-31T16:03:15.644Z,99.90
2022-10-31T16:05:53.927Z,99.90
2022-10-31T16:08:25.318Z,99.90
2022-10-31T16:10:52.860Z,99.90
2022-10-31T16:13:23.707Z,99.90
2022-10-31T16:15:59.549Z,99.90
2022-10-31T16:18:40.990Z,99.90
2022-10-31T16:21:08.513Z,99.90
2022-10-31T16:23:35.833Z,99.90
2022-10-31T16:26:07.145Z,99.90
2022-10-31T16:28:37.178Z,99.90
2022-10-31T16:31:16.562Z,99.90
2022-10-31T16:33:44.372Z,99.90
2022-10-31T16:36:36.285Z,99.90
2022-10-31T16:39:04.459Z,99.90
2022-10-31T16:41:31.781Z,99.90
2022-10-31T16:43:59.133Z,99.90
2022-10-31T16:46:27.269Z,99.90
2022-10-31T16:48:54.985Z,99.90
2022-10-31T16:51:22.314Z,99.90
2022-10-31T16:53:52.654Z,99.90
2022-10-31T16:56:32.437Z,99.90
2022-10-31T16:59:03.958Z,99.90
2022-10-31T17:01:31.692Z,99.90
2022-10-31T17:03:59.228Z,99.90
2022-10-31T17:06:28.428Z,99.90
2022-10-31T17:08:55.807Z,99.90
2022-10-31T17:11:25.310Z,99.90
2022-10-31T17:13:52.695Z,99.90
2022-10-31T17:16:20.122Z,99.90
2022-10-31T17:18:47.595Z,99.90
2022-10-31T17:21:33.213Z,99.90
2022-10-31T17:24:00.614Z,99.90
2022-10-31T17:26:27.946Z,99.90
2022-10-31T17:28:56.038Z,99.90
2022-10-31T17:31:25.431Z,99.90
2022-10-31T17:34:02.005Z,99.90
2022-10-31T17:36:31.643Z,99.90
2022-10-31T17:38:59.073Z,99.90
2022-10-31T17:41:26.375Z,99.90
2022-10-31T17:43:57.370Z,99.90
2022-10-31T17:46:24.707Z,99.90
2022-10-31T17:48:52.050Z,99.90
2022-10-31T17:51:19.346Z,99.90
2022-10-31T17:53:46.967Z,99.90
2022-10-31T17:56:14.292Z,99.90
2022-10-31T17:58:41.705Z,99.90
2022-10-31T18:01:10.607Z,99.90
2022-10-31T18:03:38.358Z,99.90
2022-10-31T18:06:05.902Z,99.90
2022-10-31T18:08:35.075Z,99.90
2022-10-31T18:11:10.886Z,99.90
2022-10-31T18:13:38.388Z,99.90
2022-10-31T18:16:10.084Z,99.90
2022-10-31T18:18:37.470Z,99.90
2022-10-31T18:21:04.945Z,99.90
2022-10-31T18:23:32.306Z,99.90
2022-10-31T18:25:59.640Z,99.90
2022-10-31T18:28:27.015Z,99.90
2022-10-31T18:30:54.287Z,99.90
2022-10-31T18:33:21.642Z,99.90
2022-10-31T18:35:49.010Z,99.90
2022-10-31T18:38:16.384Z,99.90
2022-10-31T18:40:43.702Z,99.90
2022-10-31T18:43:10.998Z,99.90
2022-10-31T18:45:47.182Z,99.90
2022-10-31T18:48:15.624Z,99.90
2022-10-31T18:50:43.347Z,99.90
2022-10-31T18:53:10.761Z,99.90
2022-10-31T18:55:45.366Z,99.90
2022-10-31T18:58:17.796Z,99.90
2022-10-31T19:00:46.009Z,99.90
2022-10-31T19:03:14.270Z,99.90
2022-10-31T19:05:41.695Z,99.90
2022-10-31T19:08:09.064Z,99.90
2022-10-31T19:10:37.550Z,99.90
2022-10-31T19:13:04.988Z,99.90
2022-10-31T19:15:33.366Z,99.90
2022-10-31T19:18:00.802Z,99.90
2022-10-31T19:20:28.147Z,99.90
2022-10-31T19:22:55.480Z,99.90
2022-10-31T19:25:22.797Z,99.90
2022-10-31T19:27:50.150Z,99.90
2022-10-31T19:30:17.480Z,99.90
2022-10-31T19:32:44.886Z,99.90
2022-10-31T19:35:12.193Z,99.90
2022-10-31T19:37:39.943Z,99.90
2022-10-31T19:40:08.703Z,99.90
2022-10-31T19:42:36.059Z,99.90
2022-10-31T19:45:03.832Z,99.90
2022-10-31T19:47:31.229Z,99.90
2022-10-31T19:49:58.544Z,99.90
2022-10-31T19:52:26.200Z,99.90
2022-10-31T19:54:53.559Z,99.90
2022-10-31T19:57:30.834Z,99.90
2022-10-31T20:00:08.976Z,99.90
2022-10-31T20:02:38.998Z,99.90
2022-10-31T20:05:06.563Z,99.90
2022-10-31T20:07:34.080Z,99.90
2022-10-31T20:10:01.423Z,99.90
2022-10-31T20:12:28.723Z,99.90
2022-10-31T20:14:56.067Z,99.90
2022-10-31T20:17:23.617Z,99.90
2022-10-31T20:19:51.058Z,99.90
2022-10-31T20:22:18.482Z,99.90
2022-10-31T20:24:45.821Z,99.90
2022-10-31T20:27:13.186Z,99.90
2022-10-31T20:29:40.812Z,99.90
2022-10-31T20:32:08.139Z,99.90
2022-10-31T20:34:35.577Z,99.90
2022-10-31T20:37:02.945Z,99.90
2022-10-31T20:39:30.287Z,99.90
2022-10-31T20:41:57.590Z,99.90
2022-10-31T20:44:24.998Z,99.90
2022-10-31T20:46:52.930Z,99.90
2022-10-31T20:49:20.225Z,99.90
2022-10-31T20:51:47.620Z,99.90
2022-10-31T20:54:15.297Z,99.90
2022-10-31T20:56:42.672Z,99.90
2022-10-31T20:59:10.084Z,99.90
2022-10-31T21:01:38.439Z,99.90
2022-10-31T21:04:08.638Z,99.90
2022-10-31T21:06:35.995Z,99.90
2022-10-31T21:09:03.620Z,99.90
2022-10-31T21:11:30.938Z,99.90
2022-10-31T21:13:58.706Z,99.90
2022-10-31T21:16:31.288Z,99.90
2022-10-31T21:19:00.033Z,99.90
2022-10-31T21:21:32.963Z,99.90
2022-10-31T21:24:07.868Z,99.90
2022-10-31T21:26:37.289Z,99.90
2022-10-31T21:29:04.928Z,99.90
2022-10-31T21:31:32.759Z,99.90
2022-10-31T21:34:00.113Z,99.90
2022-10-31T21:36:27.469Z,99.90
2022-10-31T21:38:55.120Z,99.90
2022-10-31T21:41:23.439Z,99.90
2022-10-31T21:43:51.346Z,99.90
2022-10-31T21:46:20.447Z,99.90
2022-10-31T21:48:47.798Z,99.90
2022-10-31T21:51:36.807Z,99.90
2022-10-31T21:54:23.054Z,99.90
2022-10-31T21:56:51.624Z,99.90
2022-10-31T21:59:18.986Z,99.90
2022-10-31T22:01:46.403Z,99.90
2022-10-31T22:04:13.820Z,99.90
2022-10-31T22:06:41.105Z,99.90
2022-10-31T22:09:09.113Z,99.90
2022-10-31T22:11:36.475Z,99.90
2022-10-31T22:14:04.883Z,99.90
2022-10-31T22:16:34.553Z,99.90
2022-10-31T22:19:05.456Z,99.90
2022-10-31T22:21:42.815Z,99.90
2022-10-31T22:24:10.273Z,99.90
2022-10-31T22:26:37.866Z,99.90
2022-10-31T22:29:06.838Z,99.90
2022-10-31T22:31:34.485Z,99.90
2022-10-31T22:34:01.855Z,99.90
2022-10-31T22:36:31.166Z,99.90
2022-10-31T22:38:58.664Z,99.90
2022-10-31T22:41:29.935Z,99.90
2022-10-31T22:43:57.412Z,99.90
2022-10-31T22:46:29.432Z,99.90
2022-10-31T22:48:58.933Z,99.90
2022-10-31T22:51:34.275Z,99.90
2022-10-31T22:54:01.680Z,99.90
2022-10-31T22:56:31.161Z,99.90
2022-10-31T22:58:58.841Z,99.90
2022-10-31T23:01:28.449Z,99.90
2022-10-31T23:03:55.989Z,99.90
2022-10-31T23:06:25.337Z,99.90
2022-10-31T23:08:52.825Z,99.90
2022-10-31T23:11:28.602Z,99.90
2022-10-31T23:14:08.919Z,99.90
2022-10-31T23:16:42.351Z,99.90
2022-10-31T23:19:10.616Z,99.90
2022-10-31T23:22:00.740Z,99.90
2022-10-31T23:24:36.686Z,99.90
2022-10-31T23:27:23.250Z,99.90
2022-10-31T23:29:54.633Z,99.90
2022-10-31T23:32:24.761Z,99.90
2022-10-31T23:34:59.797Z,99.90
2022-10-31T23:37:29.457Z,99.90
2022-10-31T23:39:56.817Z,99.90
2022-10-31T23:42:24.290Z,99.90
2022-10-31T23:44:51.742Z,99.90
2022-10-31T23:47:19.141Z,99.90
2022-10-31T23:49:46.514Z,99.90
2022-10-31T23:52:14.134Z,99.90
2022-10-31T23:54:41.591Z,99.90
2022-10-31T23:57:10.256Z,99.90
2022-10-31T23:59:37.537Z,99.90
